Time,TemperatureF,DewpointF,PressureIn,WindDirection,WindDirectionDegrees,WindSpeedMPH,WindSpeedGustMPH,Humidity,HourlyPrecipIn,Conditions,Clouds,dailyrainin,SoftwareType,DateUTC
2013-10-06 00:01:00,59.2,57.8,29.98,East,90,4.5,5.8,95,0.00,RA,,0.00,WeatherDisplay:10.37,2013-10-06 04:01:00,
2013-10-06 00:02:00,59.2,57.8,29.98,ESE,112,4.4,5.8,95,0.00,RA,,0.00,WeatherDisplay:10.37,2013-10-06 04:02:00,
2013-10-06 00:04:00,59.2,57.8,29.97,East,90,5.3,5.8,95,0.00,RA,,0.00,WeatherDisplay:10.37,2013-10-06 04:04:00,
2013-10-06 00:09:00,59.2,57.8,29.97,ESE,112,4.4,5.8,95,0.00,RA,,0.00,WeatherDisplay:10.37,2013-10-06 04:09:00,
2013-10-06 00:14:00,59.2,57.8,29.97,ESE,112,3.8,5.8,95,0.00,BKN,,0.00,WeatherDisplay:10.37,2013-10-06 04:14:00,
2013-10-06 00:19:00,59.2,57.8,29.97,ESE,112,3.7,4.6,95,0.00,BKN,,0.00,WeatherDisplay:10.37,2013-10-06 04:19:00,
2013-10-06 00:24:00,59.2,57.8,29.97,ESE,112,3.7,3.7,95,0.00,BKN,,0.00,WeatherDisplay:10.37,2013-10-06 04:24:00,
2013-10-06 00:29:00,59.2,57.8,29.97,ESE,112,4.1,5.8,95,0.00,BKN,,0.00,WeatherDisplay:10.37,2013-10-06 04:29:00,
2013-10-06 00:34:00,59.2,57.8,29.97,ESE,112,4.7,4.7,95,0.00,BKN,,0.00,WeatherDisplay:10.37,2013-10-06 04:34:00,
2013-10-06 00:39:00,59.2,57.8,29.97,ESE,112,3.9,5.8,95,0.00,BKN,,0.00,WeatherDisplay:10.37,2013-10-06 04:39:00,
2013-10-06 00:44:00,59.2,57.8,29.97,ESE,112,6.0,9.2,95,0.00,BKN,,0.00,WeatherDisplay:10.37,2013-10-06 04:44:00,
2013-10-06 00:49:00,59.2,57.8,29.96,ESE,112,3.7,4.6,95,0.00,BKN,,0.00,WeatherDisplay:10.37,2013-10-06 04:49:00,
2013-10-06 00:54:00,59.2,57.8,29.96,ESE,112,3.7,3.7,95,0.00,BKN,,0.00,WeatherDisplay:10.37,2013-10-06 04:54:00,
2013-10-06 00:59:00,59.2,57.8,29.96,ESE,112,2.0,2.3,95,0.00,BKN,,0.00,WeatherDisplay:10.37,2013-10-06 04:59:00,
2013-10-06 01:04:00,59.2,57.8,29.96,WSW,248,0.2,1.1,95,0.02,RA,,0.03,WeatherDisplay:10.37,2013-10-06 05:04:00,
2013-10-06 01:09:00,59.2,57.8,29.96,SSW,202,1.7,2.7,95,0.09,RA,,0.11,WeatherDisplay:10.37,2013-10-06 05:09:00,
2013-10-06 01:14:00,59.2,57.8,29.98,ESE,112,2.4,3.5,95,0.27,RA,,0.30,WeatherDisplay:10.37,2013-10-06 05:14:00,
2013-10-06 01:19:00,59.2,57.8,29.98,SSW,202,2.3,2.3,95,0.44,RA,,0.44,WeatherDisplay:10.37,2013-10-06 05:19:00,
2013-10-06 01:24:00,59.2,57.8,29.98,ENE,68,1.6,2.3,95,0.46,RA,,0.46,WeatherDisplay:10.37,2013-10-06 05:24:00,
2013-10-06 01:29:00,59.2,57.8,29.96,ESE,112,4.5,6.9,95,0.46,RA,,0.46,WeatherDisplay:10.37,2013-10-06 05:29:00,
2013-10-06 01:34:00,59.2,57.8,29.96,East,90,3.3,4.7,95,0.46,OVC,,0.46,WeatherDisplay:10.37,2013-10-06 05:34:00,
2013-10-06 01:40:00,59.2,57.8,29.95,ESE,112,3.6,4.6,95,0.46,OVC,,0.46,WeatherDisplay:10.37,2013-10-06 05:40:00,
2013-10-06 01:45:00,59.2,57.8,29.95,SE,127,3.0,5.0,95,0.00,OVC,OVC,0.46,WeatherDisplay:10.37,2013-10-06 05:45:00,
2013-10-06 01:50:00,59.4,58.0,29.95,SE,130,3.0,5.0,95,0.00,OVC,OVC,0.46,WeatherDisplay:10.37,2013-10-06 05:50:00,
2013-10-06 01:55:00,59.5,58.1,29.95,SE,125,3.0,6.0,95,0.00,OVC,OVC,0.46,WeatherDisplay:10.37,2013-10-06 05:55:00,
2013-10-06 02:00:00,59.5,58.1,29.95,SE,146,5.0,6.0,95,0.00,OVC,OVC,0.46,WeatherDisplay:10.37,2013-10-06 06:00:00,
2013-10-06 02:05:00,59.5,58.1,29.94,SE,129,5.0,6.0,95,0.00,OVC,OVC,0.46,WeatherDisplay:10.37,2013-10-06 06:05:00,
2013-10-06 02:10:00,59.5,58.1,29.94,East,90,3.6,4.6,95,0.37,OVC,,0.46,WeatherDisplay:10.37,2013-10-06 06:10:00,
2013-10-06 02:15:00,59.5,58.1,29.94,ESE,112,2.0,5.0,95,0.00,OVC,OVC,0.46,WeatherDisplay:10.37,2013-10-06 06:15:00,
2013-10-06 02:20:00,59.5,58.1,29.94,ESE,107,2.0,4.0,95,0.00,OVC,OVC,0.46,WeatherDisplay:10.37,2013-10-06 06:20:00,
2013-10-06 02:25:00,59.7,58.3,29.94,East,90,2.2,2.3,95,0.00,OVC,,0.46,WeatherDisplay:10.37,2013-10-06 06:25:00,
2013-10-06 02:30:00,59.7,58.3,29.94,East,90,2.8,3.5,95,0.00,OVC,,0.46,WeatherDisplay:10.37,2013-10-06 06:30:00,
2013-10-06 02:35:00,59.7,58.3,29.94,ESE,104,3.0,5.0,95,0.00,OVC,OVC,0.46,WeatherDisplay:10.37,2013-10-06 06:35:00,
2013-10-06 02:40:00,59.9,58.5,29.93,ESE,106,3.0,5.0,95,0.00,OVC,OVC,0.46,WeatherDisplay:10.37,2013-10-06 06:40:00,
2013-10-06 02:45:00,60.1,58.7,29.93,ESE,113,3.0,5.0,95,0.00,OVC,OVC,0.46,WeatherDisplay:10.37,2013-10-06 06:45:00,
2013-10-06 02:50:00,60.3,58.8,29.93,ESE,115,3.0,5.0,95,0.00,OVC,OVC,0.46,WeatherDisplay:10.37,2013-10-06 06:50:00,
2013-10-06 02:55:00,60.3,58.9,29.92,ESE,118,2.0,4.0,95,0.00,OVC,OVC,0.46,WeatherDisplay:10.37,2013-10-06 06:55:00,
2013-10-06 03:00:00,60.4,59.0,29.92,ESE,115,2.0,4.0,95,0.00,OVC,OVC,0.46,WeatherDisplay:10.37,2013-10-06 07:00:00,
2013-10-06 03:05:00,60.4,59.0,29.92,ESE,109,2.0,3.0,95,0.00,OVC,OVC,0.46,WeatherDisplay:10.37,2013-10-06 07:05:00,
2013-10-06 03:10:00,60.4,59.0,29.92,ESE,112,2.0,3.0,95,0.00,OVC,OVC,0.46,WeatherDisplay:10.37,2013-10-06 07:10:00,
2013-10-06 03:15:00,60.6,59.2,29.92,ESE,116,2.0,4.0,95,0.00,OVC,OVC,0.46,WeatherDisplay:10.37,2013-10-06 07:15:00,
2013-10-06 03:20:00,60.8,59.4,29.92,ESE,108,2.0,3.0,95,0.00,OVC,OVC,0.46,WeatherDisplay:10.37,2013-10-06 07:20:00,
2013-10-06 03:25:00,60.8,59.4,29.92,East,100,2.0,3.0,95,0.00,OVC,OVC,0.46,WeatherDisplay:10.37,2013-10-06 07:25:00,
2013-10-06 03:30:00,60.8,59.4,29.92,East,100,2.0,3.0,95,0.00,OVC,OVC,0.46,WeatherDisplay:10.37,2013-10-06 07:30:00,
2013-10-06 03:35:00,61.0,59.6,29.92,East,92,2.0,3.0,95,0.00,OVC,OVC,0.46,WeatherDisplay:10.37,2013-10-06 07:35:00,
2013-10-06 03:40:00,61.0,59.6,29.93,East,90,2.4,2.7,95,0.00,OVC,,0.46,WeatherDisplay:10.37,2013-10-06 07:40:00,
2013-10-06 03:45:00,61.0,59.6,29.93,ESE,112,1.9,2.3,95,0.00,OVC,,0.46,WeatherDisplay:10.37,2013-10-06 07:45:00,
2013-10-06 03:50:00,61.0,59.6,29.93,ESE,102,2.0,3.0,95,0.00,OVC,OVC,0.46,WeatherDisplay:10.37,2013-10-06 07:50:00,
2013-10-06 03:55:00,61.2,59.8,29.92,ESE,111,1.0,2.0,95,0.00,OVC,OVC,0.46,WeatherDisplay:10.37,2013-10-06 07:55:00,
2013-10-06 04:00:00,61.2,59.8,29.92,ESE,112,1.0,3.0,95,0.00,OVC,OVC,0.46,WeatherDisplay:10.37,2013-10-06 08:00:00,
2013-10-06 04:05:00,61.2,59.8,29.91,East,101,2.0,3.0,95,0.00,OVC,OVC,0.46,WeatherDisplay:10.37,2013-10-06 08:05:00,
2013-10-06 04:10:00,61.2,59.8,29.91,ESE,104,2.0,3.0,95,0.00,OVC,OVC,0.46,WeatherDisplay:10.37,2013-10-06 08:10:00,
2013-10-06 04:15:00,61.2,59.8,29.91,ESE,109,1.0,2.0,95,0.00,OVC,OVC,0.46,WeatherDisplay:10.37,2013-10-06 08:15:00,
2013-10-06 04:20:00,61.2,59.8,29.91,ESE,112,1.3,1.3,95,0.00,OVC,,0.46,WeatherDisplay:10.37,2013-10-06 08:20:00,
2013-10-06 04:25:00,61.2,59.8,29.91,ESE,112,0.3,2.3,95,0.00,OVC,,0.46,WeatherDisplay:10.37,2013-10-06 08:25:00,
2013-10-06 04:30:00,61.2,59.8,29.91,ESE,115,0.0,2.0,95,0.00,OVC,OVC,0.46,WeatherDisplay:10.37,2013-10-06 08:30:00,
2013-10-06 04:35:00,61.2,59.8,29.91,SE,126,1.0,2.0,95,0.00,OVC,OVC,0.46,WeatherDisplay:10.37,2013-10-06 08:35:00,
2013-10-06 04:40:00,61.2,59.8,29.91,ESE,112,1.0,2.0,95,0.00,OVC,OVC,0.46,WeatherDisplay:10.37,2013-10-06 08:40:00,
2013-10-06 04:45:00,61.3,59.9,29.91,ESE,111,2.0,3.0,95,0.00,OVC,OVC,0.46,WeatherDisplay:10.37,2013-10-06 08:45:00,
2013-10-06 04:50:00,61.3,59.9,29.91,East,101,2.0,5.0,95,0.00,OVC,OVC,0.46,WeatherDisplay:10.37,2013-10-06 08:50:00,
2013-10-06 04:55:00,61.3,59.9,29.90,East,92,0.0,3.0,95,0.00,OVC,OVC,0.46,WeatherDisplay:10.37,2013-10-06 08:55:00,
2013-10-06 05:00:00,61.3,59.9,29.90,East,97,1.0,2.0,95,0.00,OVC,OVC,0.46,WeatherDisplay:10.37,2013-10-06 09:00:00,
2013-10-06 05:05:00,61.3,59.9,29.91,ESE,112,0.0,2.0,95,0.00,OVC,OVC,0.46,WeatherDisplay:10.37,2013-10-06 09:05:00,
2013-10-06 05:09:00,61.3,59.9,29.91,SSE,158,0.0,0.0,95,0.00,OVC,,0.46,WeatherDisplay:10.37,2013-10-06 09:09:00,
2013-10-06 05:14:00,61.3,59.9,29.91,SSE,158,0.0,0.0,95,0.01,RA,,0.47,WeatherDisplay:10.37,2013-10-06 09:14:00,
2013-10-06 05:19:00,61.5,60.1,29.91,South,180,0.0,0.0,95,0.01,RA,,0.47,WeatherDisplay:10.37,2013-10-06 09:19:00,
2013-10-06 05:24:00,61.9,60.5,29.91,ESE,112,2.5,2.7,95,0.10,RA,,0.58,WeatherDisplay:10.37,2013-10-06 09:24:00,
2013-10-06 05:29:00,61.9,60.5,29.91,SE,135,0.0,0.0,95,0.15,RA,,0.61,WeatherDisplay:10.37,2013-10-06 09:29:00,
2013-10-06 05:34:00,62.2,60.8,29.91,SE,135,1.0,2.3,95,0.15,RA,,0.61,WeatherDisplay:10.37,2013-10-06 09:34:00,
2013-10-06 05:39:00,62.4,60.9,29.90,ESE,112,1.8,2.3,95,0.15,OVC,,0.61,WeatherDisplay:10.37,2013-10-06 09:39:00,
2013-10-06 05:44:00,62.6,61.1,29.90,SE,135,0.0,0.0,95,0.15,OVC,,0.61,WeatherDisplay:10.37,2013-10-06 09:44:00,
2013-10-06 05:49:00,63.0,61.5,29.90,SE,135,1.6,2.3,95,0.15,OVC,,0.61,WeatherDisplay:10.37,2013-10-06 09:49:00,
2013-10-06 05:54:00,63.1,61.6,29.90,SE,135,1.6,1.7,95,0.15,OVC,,0.61,WeatherDisplay:10.37,2013-10-06 09:54:00,
2013-10-06 05:59:00,63.3,61.8,29.90,SSE,158,1.9,2.3,95,0.15,OVC,,0.61,WeatherDisplay:10.37,2013-10-06 09:59:00,
2013-10-06 06:04:00,63.9,62.4,29.90,SE,135,3.5,3.5,95,0.15,OVC,,0.61,WeatherDisplay:10.37,2013-10-06 10:04:00,
2013-10-06 06:09:00,64.0,62.5,29.90,SE,135,2.2,3.5,95,0.15,OVC,,0.61,WeatherDisplay:10.37,2013-10-06 10:09:00,
2013-10-06 06:14:00,64.4,62.9,29.89,ESE,112,4.1,4.7,95,0.14,OVC,,0.61,WeatherDisplay:10.37,2013-10-06 10:14:00,
2013-10-06 06:19:00,64.4,62.9,29.89,SSE,158,4.5,4.7,95,0.14,OVC,,0.61,WeatherDisplay:10.37,2013-10-06 10:19:00,
2013-10-06 06:24:00,64.4,62.9,29.89,South,180,3.6,4.6,95,0.05,OVC,,0.61,WeatherDisplay:10.37,2013-10-06 10:24:00,
2013-10-06 06:29:00,64.6,63.1,29.89,SE,135,2.3,2.3,95,0.00,OVC,,0.61,WeatherDisplay:10.37,2013-10-06 10:29:00,
2013-10-06 06:34:00,64.6,63.1,29.89,SE,135,1.7,2.3,95,0.00,OVC,,0.61,WeatherDisplay:10.37,2013-10-06 10:34:00,
2013-10-06 06:39:00,64.6,63.1,29.89,SE,135,2.4,2.4,95,0.00,OVC,,0.61,WeatherDisplay:10.37,2013-10-06 10:39:00,
2013-10-06 06:44:00,64.6,63.1,29.89,South,180,2.1,3.2,95,0.00,OVC,,0.61,WeatherDisplay:10.37,2013-10-06 10:44:00,
2013-10-06 06:49:00,64.6,63.1,29.89,SSE,158,2.5,3.5,95,0.00,OVC,,0.61,WeatherDisplay:10.37,2013-10-06 10:49:00,
2013-10-06 06:54:00,64.8,63.3,29.88,ESE,112,2.8,3.5,95,0.00,OVC,,0.61,WeatherDisplay:10.37,2013-10-06 10:54:00,
2013-10-06 06:59:00,64.9,63.4,29.88,SSW,202,3.5,4.6,95,0.00,OVC,,0.61,WeatherDisplay:10.37,2013-10-06 10:59:00,
2013-10-06 07:04:00,64.9,63.4,29.89,SSE,158,2.7,3.5,95,0.00,OVC,,0.61,WeatherDisplay:10.37,2013-10-06 11:04:00,
2013-10-06 07:09:00,64.9,63.4,29.89,SSW,202,2.7,3.7,95,0.00,OVC,,0.61,WeatherDisplay:10.37,2013-10-06 11:09:00,
2013-10-06 07:14:00,65.1,63.6,29.88,South,180,3.2,4.6,95,0.00,OVC,,0.61,WeatherDisplay:10.37,2013-10-06 11:14:00,
2013-10-06 07:19:00,65.1,63.6,29.88,ESE,112,3.1,3.7,95,0.00,OVC,,0.61,WeatherDisplay:10.37,2013-10-06 11:19:00,
2013-10-06 07:24:00,65.1,63.6,29.88,ESE,112,3.3,4.6,95,0.00,OVC,,0.61,WeatherDisplay:10.37,2013-10-06 11:24:00,
2013-10-06 07:29:00,65.3,63.8,29.88,SE,135,2.9,4.6,95,0.00,OVC,,0.61,WeatherDisplay:10.37,2013-10-06 11:29:00,
2013-10-06 07:34:00,65.3,63.8,29.88,ESE,112,2.5,2.5,95,0.00,OVC,,0.61,WeatherDisplay:10.37,2013-10-06 11:34:00,
2013-10-06 07:39:00,65.3,63.8,29.89,ESE,112,0.0,0.0,95,0.00,OVC,,0.61,WeatherDisplay:10.37,2013-10-06 11:39:00,
2013-10-06 07:44:00,65.3,63.8,29.89,West,270,2.3,2.3,95,0.00,OVC,,0.62,WeatherDisplay:10.37,2013-10-06 11:44:00,
2013-10-06 07:49:00,65.3,63.8,29.89,WNW,292,3.3,3.5,95,0.07,RA,,0.68,WeatherDisplay:10.37,2013-10-06 11:49:00,
2013-10-06 07:54:00,65.5,64.0,29.89,SE,135,3.3,3.7,95,0.07,RA,,0.68,WeatherDisplay:10.37,2013-10-06 11:54:00,
2013-10-06 07:59:00,65.8,64.3,29.89,West,270,0.7,2.3,95,0.07,OVC,,0.68,WeatherDisplay:10.37,2013-10-06 11:59:00,
2013-10-06 08:04:00,65.8,64.3,29.89,ESE,112,2.0,3.5,95,0.07,OVC,,0.68,WeatherDisplay:10.37,2013-10-06 12:04:00,
2013-10-06 08:09:00,65.8,64.3,29.89,WSW,248,0.0,0.0,95,0.07,OVC,,0.68,WeatherDisplay:10.37,2013-10-06 12:09:00,
2013-10-06 08:14:00,65.8,64.3,29.90,West,270,0.0,0.0,95,0.07,OVC,,0.68,WeatherDisplay:10.37,2013-10-06 12:14:00,
2013-10-06 08:19:00,66.0,64.5,29.90,WSW,248,0.0,0.0,95,0.07,OVC,,0.68,WeatherDisplay:10.37,2013-10-06 12:19:00,
2013-10-06 08:24:00,66.2,64.7,29.90,SSE,158,0.0,0.0,95,0.07,OVC,,0.68,WeatherDisplay:10.37,2013-10-06 12:24:00,
2013-10-06 08:29:00,66.4,64.9,29.90,SE,135,0.0,0.0,95,0.07,OVC,,0.68,WeatherDisplay:10.37,2013-10-06 12:29:00,
2013-10-06 08:34:00,66.4,64.9,29.90,SSE,158,2.7,2.7,95,0.07,OVC,,0.68,WeatherDisplay:10.37,2013-10-06 12:34:00,
2013-10-06 08:39:00,66.6,65.1,29.90,South,180,0.0,1.1,95,0.07,OVC,,0.68,WeatherDisplay:10.37,2013-10-06 12:39:00,
2013-10-06 08:44:00,66.7,65.2,29.90,West,270,0.0,0.0,95,0.07,OVC,,0.68,WeatherDisplay:10.37,2013-10-06 12:44:00,
2013-10-06 08:49:00,66.7,65.2,29.90,West,270,3.3,3.5,95,0.00,OVC,,0.68,WeatherDisplay:10.37,2013-10-06 12:49:00,
2013-10-06 08:54:00,66.7,65.2,29.91,SSE,158,0.9,2.2,95,0.00,OVC,,0.68,WeatherDisplay:10.37,2013-10-06 12:54:00,
2013-10-06 08:59:00,66.7,65.2,29.91,WNW,292,0.0,1.1,95,0.00,OVC,,0.68,WeatherDisplay:10.37,2013-10-06 12:59:00,
2013-10-06 09:04:00,66.7,65.2,29.91,West,270,0.0,0.0,95,0.00,OVC,,0.68,WeatherDisplay:10.37,2013-10-06 13:04:00,
2013-10-06 09:09:00,66.9,65.4,29.91,ESE,112,0.0,0.0,95,0.00,OVC,,0.68,WeatherDisplay:10.37,2013-10-06 13:09:00,
2013-10-06 09:14:00,67.1,65.6,29.91,SSE,158,0.0,0.0,95,0.00,-RA,,0.68,WeatherDisplay:10.37,2013-10-06 13:14:00,
2013-10-06 09:19:00,67.3,65.8,29.90,SSE,158,0.0,0.0,95,0.00,-RA,,0.68,WeatherDisplay:10.37,2013-10-06 13:19:00,
2013-10-06 09:24:00,67.8,66.3,29.90,ESE,112,0.0,0.0,95,0.00,-RA,,0.68,WeatherDisplay:10.37,2013-10-06 13:24:00,
2013-10-06 09:29:00,68.4,66.9,29.90,ESE,112,0.0,0.0,95,0.00,-RA,,0.68,WeatherDisplay:10.37,2013-10-06 13:29:00,
2013-10-06 09:34:00,68.7,67.2,29.90,ESE,112,0.0,0.0,95,0.00,-RA,,0.68,WeatherDisplay:10.37,2013-10-06 13:34:00,
2013-10-06 09:39:00,69.1,67.6,29.90,West,270,0.0,0.0,95,0.00,-RA,,0.68,WeatherDisplay:10.37,2013-10-06 13:39:00,
2013-10-06 09:44:00,69.4,67.9,29.90,SE,135,0.0,0.0,95,0.00,-RA,,0.68,WeatherDisplay:10.37,2013-10-06 13:44:00,
2013-10-06 09:49:00,69.8,68.3,29.90,SSE,158,0.0,0.0,95,0.00,-RA,,0.68,WeatherDisplay:10.37,2013-10-06 13:49:00,
2013-10-06 09:54:00,69.6,68.1,29.90,SE,135,0.0,0.0,95,0.00,OVC,,0.68,WeatherDisplay:10.37,2013-10-06 13:54:00,
2013-10-06 09:59:00,69.4,67.9,29.90,SSW,202,0.0,0.0,95,0.00,OVC,,0.68,WeatherDisplay:10.37,2013-10-06 13:59:00,
2013-10-06 10:04:00,69.4,67.9,29.89,SW,225,0.0,0.0,95,0.00,OVC,,0.68,WeatherDisplay:10.37,2013-10-06 14:04:00,
2013-10-06 10:09:00,69.4,67.9,29.89,South,180,0.0,1.1,95,0.00,OVC,,0.68,WeatherDisplay:10.37,2013-10-06 14:09:00,
2013-10-06 10:14:00,69.3,67.8,29.89,South,180,2.3,2.3,95,0.01,RA,,0.69,WeatherDisplay:10.37,2013-10-06 14:14:00,
2013-10-06 10:19:00,69.1,67.6,29.89,ESE,112,2.5,2.7,95,0.01,RA,,0.69,WeatherDisplay:10.37,2013-10-06 14:19:00,
2013-10-06 10:24:00,69.1,67.6,29.89,SSE,158,2.8,3.2,95,0.01,OVC,,0.69,WeatherDisplay:10.37,2013-10-06 14:24:00,
2013-10-06 10:29:00,69.1,67.6,29.89,SSE,158,2.9,3.5,95,0.02,RA,,0.70,WeatherDisplay:10.37,2013-10-06 14:29:00,
2013-10-06 10:34:00,69.1,67.6,29.89,SSE,158,2.3,2.7,95,0.02,RA,,0.70,WeatherDisplay:10.37,2013-10-06 14:34:00,
2013-10-06 10:39:00,69.3,67.8,29.89,ESE,112,1.9,2.3,95,0.02,OVC,,0.70,WeatherDisplay:10.37,2013-10-06 14:39:00,
2013-10-06 10:44:00,69.4,67.9,29.89,SSE,158,3.4,4.6,95,0.02,OVC,,0.70,WeatherDisplay:10.37,2013-10-06 14:44:00,
2013-10-06 10:49:00,70.3,68.8,29.89,SSE,158,4.3,5.8,95,0.02,OVC,,0.70,WeatherDisplay:10.37,2013-10-06 14:49:00,
2013-10-06 10:54:00,71.4,69.9,29.88,ESE,112,2.2,2.3,95,0.02,OVC,,0.70,WeatherDisplay:10.37,2013-10-06 14:54:00,
2013-10-06 10:59:00,71.8,69.7,29.88,WSW,248,3.9,5.8,93,0.02,OVC,,0.70,WeatherDisplay:10.37,2013-10-06 14:59:00,
2013-10-06 11:04:00,72.3,70.2,29.88,South,180,3.6,4.6,93,0.02,OVC,,0.70,WeatherDisplay:10.37,2013-10-06 15:04:00,
2013-10-06 11:09:00,72.3,70.2,29.88,SSE,158,2.4,3.5,93,0.02,OVC,,0.70,WeatherDisplay:10.37,2013-10-06 15:09:00,
2013-10-06 11:14:00,72.9,70.8,29.87,SSE,158,1.0,3.5,93,0.01,OVC,,0.70,WeatherDisplay:10.37,2013-10-06 15:14:00,
2013-10-06 11:19:00,73.2,70.7,29.87,SSE,158,2.4,2.4,92,0.01,OVC,,0.70,WeatherDisplay:10.37,2013-10-06 15:19:00,
2013-10-06 11:24:00,73.8,71.3,29.87,ENE,68,1.2,1.2,92,0.01,OVC,,0.70,WeatherDisplay:10.37,2013-10-06 15:24:00,
2013-10-06 11:29:00,74.8,71.7,29.86,SSW,202,2.5,3.5,90,0.00,OVC,,0.70,WeatherDisplay:10.37,2013-10-06 15:29:00,
2013-10-06 11:34:00,74.8,71.7,29.86,NNW,338,2.2,3.5,90,0.00,OVC,,0.70,WeatherDisplay:10.37,2013-10-06 15:34:00,
2013-10-06 11:39:00,75.6,72.1,29.86,SE,135,3.1,3.5,89,0.00,OVC,,0.70,WeatherDisplay:10.37,2013-10-06 15:39:00,
2013-10-06 11:44:00,75.9,71.8,29.86,SSW,202,4.1,5.3,87,0.00,OVC,,0.70,WeatherDisplay:10.37,2013-10-06 15:44:00,
2013-10-06 11:49:00,76.1,71.9,29.86,SSE,158,3.2,4.6,87,0.00,OVC,,0.70,WeatherDisplay:10.37,2013-10-06 15:49:00,
2013-10-06 11:54:00,76.5,72.0,29.85,SE,135,3.6,4.6,86,0.00,OVC,,0.70,WeatherDisplay:10.37,2013-10-06 15:54:00,
2013-10-06 11:59:00,77.7,72.8,29.85,South,180,2.7,4.6,85,0.00,OVC,,0.70,WeatherDisplay:10.37,2013-10-06 15:59:00,
2013-10-06 12:04:00,78.3,72.0,29.85,SSE,158,6.8,8.1,81,0.00,OVC,,0.70,WeatherDisplay:10.37,2013-10-06 16:04:00,
2013-10-06 12:09:00,78.1,71.8,29.85,SW,225,5.3,6.9,81,0.00,OVC,,0.70,WeatherDisplay:10.37,2013-10-06 16:09:00,
2013-10-06 12:14:00,78.8,71.7,29.85,WSW,248,3.7,4.7,79,0.00,BKN,,0.70,WeatherDisplay:10.37,2013-10-06 16:14:00,
2013-10-06 12:19:00,80.2,72.7,29.85,South,180,2.5,2.5,78,0.00,BKN,,0.70,WeatherDisplay:10.37,2013-10-06 16:19:00,
2013-10-06 12:24:00,81.1,72.4,29.85,South,180,1.9,3.5,75,0.00,BKN,,0.70,WeatherDisplay:10.37,2013-10-06 16:24:00,
2013-10-06 12:29:00,82.2,71.9,29.85,WSW,248,3.5,5.8,71,0.00,BKN,,0.70,WeatherDisplay:10.37,2013-10-06 16:29:00,
2013-10-06 12:34:00,81.9,71.6,29.85,WNW,292,4.3,5.8,71,0.00,BKN,,0.70,WeatherDisplay:10.37,2013-10-06 16:34:00,
2013-10-06 12:39:00,82.6,72.2,29.85,SSW,202,2.0,2.3,71,0.00,BKN,,0.70,WeatherDisplay:10.37,2013-10-06 16:39:00,
2013-10-06 12:44:00,83.5,70.9,29.85,South,180,2.9,4.6,66,0.00,BKN,,0.70,WeatherDisplay:10.37,2013-10-06 16:44:00,
2013-10-06 12:49:00,81.3,70.6,29.85,West,270,3.0,3.5,70,0.00,BKN,,0.70,WeatherDisplay:10.37,2013-10-06 16:49:00,
2013-10-06 12:54:00,81.5,70.8,29.84,ENE,68,2.8,3.5,70,0.00,BKN,,0.70,WeatherDisplay:10.37,2013-10-06 16:54:00,
2013-10-06 12:59:00,81.0,70.7,29.84,ESE,112,2.7,3.5,71,0.00,BKN,,0.70,WeatherDisplay:10.37,2013-10-06 16:59:00,
2013-10-06 13:04:00,81.3,71.0,29.83,SW,225,2.8,3.7,71,0.00,BKN,,0.70,WeatherDisplay:10.37,2013-10-06 17:04:00,
2013-10-06 13:09:00,80.8,70.9,29.83,SE,135,1.9,5.8,72,0.00,BKN,,0.70,WeatherDisplay:10.37,2013-10-06 17:09:00,
2013-10-06 13:14:00,81.3,71.0,29.83,ESE,112,2.6,3.5,71,0.00,BKN,,0.70,WeatherDisplay:10.37,2013-10-06 17:14:00,
2013-10-06 13:19:00,81.7,71.0,29.83,SSE,158,5.8,5.8,70,0.00,BKN,,0.70,WeatherDisplay:10.37,2013-10-06 17:19:00,
2013-10-06 13:24:00,81.7,71.0,29.83,NW,315,4.2,5.8,70,0.00,BKN,,0.70,WeatherDisplay:10.37,2013-10-06 17:24:00,
2013-10-06 13:29:00,81.9,71.6,29.83,SW,225,0.3,2.3,71,0.00,BKN,,0.70,WeatherDisplay:10.37,2013-10-06 17:29:00,
2013-10-06 13:34:00,82.8,71.6,29.83,WSW,248,1.5,4.6,69,0.00,BKN,,0.70,WeatherDisplay:10.37,2013-10-06 17:34:00,
2013-10-06 13:39:00,82.8,72.0,29.81,NE,45,0.8,1.1,70,0.00,BKN,,0.70,WeatherDisplay:10.37,2013-10-06 17:39:00,
2013-10-06 13:44:00,84.0,72.3,29.81,WSW,248,1.6,2.2,68,0.00,BKN,,0.70,WeatherDisplay:10.37,2013-10-06 17:44:00,
2013-10-06 13:49:00,84.2,72.0,29.81,West,270,3.6,3.6,67,0.00,BKN,,0.70,WeatherDisplay:10.37,2013-10-06 17:49:00,
2013-10-06 13:54:00,85.1,71.5,29.81,East,90,3.6,5.8,64,0.00,BKN,,0.70,WeatherDisplay:10.37,2013-10-06 17:54:00,
2013-10-06 13:59:00,84.7,71.2,29.81,NNW,338,4.1,5.8,64,0.00,BKN,,0.70,WeatherDisplay:10.37,2013-10-06 17:59:00,
2013-10-06 14:04:00,84.9,69.0,29.80,SW,225,7.6,10.4,59,0.00,BKN,,0.70,WeatherDisplay:10.37,2013-10-06 18:04:00,
2013-10-06 14:09:00,84.9,69.5,29.80,SW,225,5.3,6.9,60,0.00,BKN,,0.70,WeatherDisplay:10.37,2013-10-06 18:09:00,
2013-10-06 14:14:00,84.2,68.3,29.80,WNW,292,7.4,11.5,59,0.00,BKN,,0.70,WeatherDisplay:10.37,2013-10-06 18:14:00,
2013-10-06 14:19:00,84.4,68.0,29.80,SW,225,9.6,11.5,58,0.00,BKN,,0.70,WeatherDisplay:10.37,2013-10-06 18:19:00,
2013-10-06 14:24:00,83.1,67.8,29.80,SSW,202,6.1,6.9,60,0.00,BKN,,0.70,WeatherDisplay:10.37,2013-10-06 18:24:00,
2013-10-06 14:29:00,82.9,68.1,29.80,WSW,248,5.7,7.3,61,0.00,BKN,,0.70,WeatherDisplay:10.37,2013-10-06 18:29:00,
2013-10-06 14:34:00,84.2,68.8,29.80,NW,315,4.5,5.8,60,0.00,BKN,,0.70,WeatherDisplay:10.37,2013-10-06 18:34:00,
2013-10-06 14:39:00,84.7,68.8,29.80,WSW,248,4.7,6.8,59,0.00,BKN,,0.70,WeatherDisplay:10.37,2013-10-06 18:39:00,
2013-10-06 14:44:00,84.9,68.0,29.80,West,270,5.6,6.9,57,0.00,BKN,,0.70,WeatherDisplay:10.37,2013-10-06 18:44:00,
2013-10-06 14:49:00,84.4,68.0,29.80,NNE,22,6.6,8.1,58,0.00,BKN,,0.70,WeatherDisplay:10.37,2013-10-06 18:49:00,
2013-10-06 14:54:00,84.7,67.3,29.80,SW,225,12.9,17.3,56,0.00,BKN,,0.70,WeatherDisplay:10.37,2013-10-06 18:54:00,
2013-10-06 14:59:00,84.9,66.9,29.80,NW,315,5.8,9.2,55,0.00,BKN,,0.70,WeatherDisplay:10.37,2013-10-06 18:59:00,
2013-10-06 15:04:00,85.3,66.8,29.79,South,180,8.4,10.4,54,0.00,OVC,,0.70,WeatherDisplay:10.37,2013-10-06 19:04:00,
2013-10-06 15:09:00,84.9,66.4,29.79,SSW,202,10.9,11.5,54,0.00,OVC,,0.70,WeatherDisplay:10.37,2013-10-06 19:09:00,
2013-10-06 15:14:00,84.2,66.3,29.80,NW,315,8.3,9.4,55,0.00,OVC,,0.70,WeatherDisplay:10.37,2013-10-06 19:14:00,
2013-10-06 15:19:00,83.5,66.2,29.80,SW,225,7.6,12.7,56,0.00,OVC,,0.70,WeatherDisplay:10.37,2013-10-06 19:19:00,
2013-10-06 15:24:00,83.3,66.5,29.80,West,270,4.9,5.8,57,0.00,OVC,,0.70,WeatherDisplay:10.37,2013-10-06 19:24:00,
2013-10-06 15:29:00,84.2,66.8,29.79,WSW,248,8.1,8.1,56,0.00,OVC,,0.70,WeatherDisplay:10.37,2013-10-06 19:29:00,
2013-10-06 15:34:00,84.2,66.8,29.79,West,270,5.8,5.8,56,0.00,OVC,,0.70,WeatherDisplay:10.37,2013-10-06 19:34:00,
2013-10-06 15:39:00,83.3,66.5,29.78,West,270,5.5,6.9,57,0.00,OVC,,0.70,WeatherDisplay:10.37,2013-10-06 19:39:00,
2013-10-06 15:44:00,83.8,66.9,29.78,NE,45,3.1,6.9,57,0.00,OVC,,0.70,WeatherDisplay:10.37,2013-10-06 19:44:00,
2013-10-06 15:49:00,84.2,66.8,29.78,West,270,4.0,4.6,56,0.00,OVC,,0.70,WeatherDisplay:10.37,2013-10-06 19:49:00,
2013-10-06 15:54:00,83.5,66.7,29.78,West,270,5.3,6.8,57,0.00,OVC,,0.70,WeatherDisplay:10.37,2013-10-06 19:54:00,
2013-10-06 15:59:00,83.3,66.5,29.78,SSW,202,4.9,6.9,57,0.00,OVC,,0.70,WeatherDisplay:10.37,2013-10-06 19:59:00,
2013-10-06 16:04:00,82.9,66.1,29.78,West,270,5.1,5.8,57,0.00,OVC,,0.70,WeatherDisplay:10.37,2013-10-06 20:04:00,
2013-10-06 16:09:00,82.9,66.6,29.78,SSW,202,4.2,5.8,58,0.00,OVC,,0.70,WeatherDisplay:10.37,2013-10-06 20:09:00,
2013-10-06 16:14:00,83.1,66.8,29.77,WSW,248,4.1,4.7,58,0.00,BKN,,0.70,WeatherDisplay:10.37,2013-10-06 20:14:00,
2013-10-06 16:19:00,83.8,66.9,29.77,WNW,292,4.7,5.8,57,0.00,BKN,,0.70,WeatherDisplay:10.37,2013-10-06 20:19:00,
2013-10-06 16:24:00,84.2,67.8,29.77,West,270,0.7,2.3,58,0.00,BKN,,0.70,WeatherDisplay:10.37,2013-10-06 20:24:00,
2013-10-06 16:29:00,84.6,67.7,29.77,NW,315,2.3,3.5,57,0.00,BKN,,0.70,WeatherDisplay:10.37,2013-10-06 20:29:00,
2013-10-06 16:34:00,84.6,67.2,29.77,SSE,158,4.2,7.3,56,0.00,BKN,,0.70,WeatherDisplay:10.37,2013-10-06 20:34:00,
2013-10-06 16:39:00,84.0,67.1,29.77,SW,225,4.9,5.8,57,0.00,BKN,,0.70,WeatherDisplay:10.37,2013-10-06 20:39:00,
2013-10-06 16:44:00,84.0,67.6,29.77,ESE,112,3.5,4.6,58,0.00,BKN,,0.70,WeatherDisplay:10.37,2013-10-06 20:44:00,
2013-10-06 16:49:00,85.5,67.5,29.77,South,180,4.2,6.9,55,0.00,BKN,,0.70,WeatherDisplay:10.37,2013-10-06 20:49:00,
2013-10-06 16:54:00,84.4,65.9,29.76,SW,225,5.7,8.1,54,0.00,BKN,,0.70,WeatherDisplay:10.37,2013-10-06 20:54:00,
2013-10-06 16:59:00,82.9,65.6,29.76,SSE,158,3.1,3.5,56,0.00,BKN,,0.70,WeatherDisplay:10.37,2013-10-06 20:59:00,
2013-10-06 17:04:00,84.2,65.8,29.76,NNE,22,4.4,4.7,54,0.00,BKN,,0.70,WeatherDisplay:10.37,2013-10-06 21:04:00,
2013-10-06 17:09:00,84.4,65.9,29.76,SW,225,4.1,4.6,54,0.00,BKN,,0.70,WeatherDisplay:10.37,2013-10-06 21:09:00,
2013-10-06 17:14:00,83.3,66.0,29.76,WSW,248,1.7,2.3,56,0.00,BKN,,0.70,WeatherDisplay:10.37,2013-10-06 21:14:00,
2013-10-06 17:19:00,82.6,65.8,29.76,NW,315,3.2,3.7,57,0.00,BKN,,0.70,WeatherDisplay:10.37,2013-10-06 21:19:00,
2013-10-06 17:24:00,82.0,65.3,29.76,SW,225,2.8,5.8,57,0.00,BKN,,0.70,WeatherDisplay:10.37,2013-10-06 21:24:00,
2013-10-06 17:29:00,81.7,65.5,29.76,ESE,112,1.9,2.7,58,0.00,BKN,,0.70,WeatherDisplay:10.37,2013-10-06 21:29:00,
2013-10-06 17:34:00,82.2,66.0,29.76,West,270,1.6,2.7,58,0.00,BKN,,0.70,WeatherDisplay:10.37,2013-10-06 21:34:00,
2013-10-06 17:39:00,82.8,66.5,29.76,SW,225,0.6,2.7,58,0.00,BKN,,0.70,WeatherDisplay:10.37,2013-10-06 21:39:00,
2013-10-06 17:44:00,82.2,66.0,29.76,East,90,0.4,2.3,58,0.00,BKN,,0.70,WeatherDisplay:10.37,2013-10-06 21:44:00,
2013-10-06 17:49:00,82.8,66.5,29.76,South,180,0.8,2.2,58,0.00,BKN,,0.70,WeatherDisplay:10.37,2013-10-06 21:49:00,
2013-10-06 17:54:00,83.3,66.5,29.75,WSW,248,1.6,2.3,57,0.00,BKN,,0.70,WeatherDisplay:10.37,2013-10-06 21:54:00,
2013-10-06 17:59:00,82.6,66.3,29.75,ESE,112,2.4,3.5,58,0.00,BKN,,0.70,WeatherDisplay:10.37,2013-10-06 21:59:00,
2013-10-06 18:04:00,82.4,66.1,29.75,SSE,158,0.6,2.3,58,0.00,BKN,,0.70,WeatherDisplay:10.37,2013-10-06 22:04:00,
2013-10-06 18:09:00,81.9,66.2,29.75,West,270,1.1,2.3,59,0.00,BKN,,0.70,WeatherDisplay:10.37,2013-10-06 22:09:00,
2013-10-06 18:14:00,82.6,66.3,29.75,East,90,0.0,0.0,58,0.00,BKN,,0.70,WeatherDisplay:10.37,2013-10-06 22:14:00,
2013-10-06 18:19:00,81.9,66.2,29.75,SSE,158,0.8,1.1,59,0.00,BKN,,0.70,WeatherDisplay:10.37,2013-10-06 22:19:00,
2013-10-06 18:24:00,81.3,66.1,29.75,NW,315,0.0,0.0,60,0.00,BKN,,0.70,WeatherDisplay:10.37,2013-10-06 22:24:00,
2013-10-06 18:29:00,80.8,65.6,29.75,WSW,248,0.0,0.0,60,0.00,BKN,,0.70,WeatherDisplay:10.37,2013-10-06 22:29:00,
2013-10-06 18:34:00,79.9,65.7,29.75,SE,135,0.0,0.0,62,0.00,BKN,,0.70,WeatherDisplay:10.37,2013-10-06 22:34:00,
2013-10-06 18:39:00,77.7,65.4,29.75,ESE,112,2.0,2.3,66,0.00,BKN,,0.70,WeatherDisplay:10.37,2013-10-06 22:39:00,
2013-10-06 18:44:00,77.2,65.4,29.75,SSE,158,1.7,2.3,67,0.00,BKN,,0.70,WeatherDisplay:10.37,2013-10-06 22:44:00,
2013-10-06 18:49:00,76.6,65.2,29.75,SE,135,0.0,0.0,68,0.00,BKN,,0.70,WeatherDisplay:10.37,2013-10-06 22:49:00,
2013-10-06 18:54:00,76.6,65.2,29.75,SE,135,0.0,0.0,68,0.00,BKN,,0.70,WeatherDisplay:10.37,2013-10-06 22:54:00,
2013-10-06 18:59:00,75.7,64.8,29.75,SE,135,0.0,0.0,69,0.00,BKN,,0.70,WeatherDisplay:10.37,2013-10-06 22:59:00,
2013-10-06 19:04:00,74.8,65.2,29.75,SE,135,0.0,0.0,72,0.00,BKN,,0.70,WeatherDisplay:10.37,2013-10-06 23:04:00,
2013-10-06 19:09:00,73.6,64.4,29.75,SE,135,0.0,0.0,73,0.00,BKN,,0.70,WeatherDisplay:10.37,2013-10-06 23:09:00,
2013-10-06 19:14:00,73.2,64.4,29.75,SE,135,0.0,0.0,74,0.00,BKN,,0.70,WeatherDisplay:10.37,2013-10-06 23:14:00,
2013-10-06 19:19:00,72.3,64.7,29.75,SE,135,0.0,1.1,77,0.00,BKN,,0.70,WeatherDisplay:10.37,2013-10-06 23:19:00,
2013-10-06 19:24:00,71.6,64.7,29.75,SE,135,0.0,0.0,79,0.00,BKN,,0.70,WeatherDisplay:10.37,2013-10-06 23:24:00,
2013-10-06 19:29:00,71.2,64.4,29.75,SE,135,0.0,0.0,79,0.00,BKN,,0.70,WeatherDisplay:10.37,2013-10-06 23:29:00,
2013-10-06 19:34:00,70.9,64.1,29.75,SE,135,0.0,0.0,79,0.00,BKN,,0.70,WeatherDisplay:10.37,2013-10-06 23:34:00,
2013-10-06 19:39:00,70.3,64.5,29.75,ESE,112,0.0,0.0,82,0.00,BKN,,0.70,WeatherDisplay:10.37,2013-10-06 23:39:00,
2013-10-06 19:44:00,69.8,64.4,29.75,ESE,112,0.0,0.0,83,0.00,BKN,,0.70,WeatherDisplay:10.37,2013-10-06 23:44:00,
2013-10-06 19:49:00,69.6,64.9,29.75,SSE,158,1.1,2.2,85,0.00,BKN,,0.70,WeatherDisplay:10.37,2013-10-06 23:49:00,
2013-10-06 19:54:00,69.3,64.9,29.74,ESE,112,1.9,2.2,86,0.00,BKN,,0.70,WeatherDisplay:10.37,2013-10-06 23:54:00,
2013-10-06 19:59:00,69.1,65.1,29.74,SE,135,1.8,2.3,87,0.00,BKN,,0.70,WeatherDisplay:10.37,2013-10-06 23:59:00,
2013-10-06 20:04:00,68.9,64.9,29.73,SE,135,2.2,2.3,87,0.00,BKN,,0.70,WeatherDisplay:10.37,2013-10-07 00:04:00,
2013-10-06 20:09:00,68.7,64.7,29.73,SE,135,0.0,1.1,87,0.00,BKN,,0.70,WeatherDisplay:10.37,2013-10-07 00:09:00,
2013-10-06 20:14:00,68.5,64.8,29.73,SSE,158,1.8,2.3,88,0.00,BKN,,0.70,WeatherDisplay:10.37,2013-10-07 00:14:00,
2013-10-06 20:19:00,68.5,64.8,29.73,SE,135,2.6,2.7,88,0.00,BKN,,0.70,WeatherDisplay:10.37,2013-10-07 00:19:00,
2013-10-06 20:24:00,68.4,64.7,29.73,SE,135,2.6,3.5,88,0.00,BKN,,0.70,WeatherDisplay:10.37,2013-10-07 00:24:00,
2013-10-06 20:29:00,68.2,64.5,29.73,South,180,2.0,2.3,88,0.00,BKN,,0.70,WeatherDisplay:10.37,2013-10-07 00:29:00,
2013-10-06 20:34:00,68.2,64.5,29.73,SE,135,2.3,2.3,88,0.00,BKN,,0.70,WeatherDisplay:10.37,2013-10-07 00:34:00,
2013-10-06 20:39:00,68.0,64.3,29.73,SSE,158,0.3,1.1,88,0.00,BKN,,0.70,WeatherDisplay:10.37,2013-10-07 00:39:00,
2013-10-06 20:44:00,68.2,64.5,29.73,SSE,158,2.2,3.2,88,0.00,BKN,,0.70,WeatherDisplay:10.37,2013-10-07 00:44:00,
2013-10-06 20:49:00,68.7,64.3,29.72,SSE,158,3.5,3.7,86,0.00,BKN,,0.70,WeatherDisplay:10.37,2013-10-07 00:49:00,
2013-10-06 20:54:00,69.3,64.6,29.72,SE,135,3.7,4.2,85,0.00,BKN,,0.70,WeatherDisplay:10.37,2013-10-07 00:54:00,
2013-10-06 20:59:00,69.4,64.4,29.72,South,180,2.6,3.7,84,0.00,BKN,,0.70,WeatherDisplay:10.37,2013-10-07 00:59:00,
2013-10-06 21:04:00,69.8,64.4,29.72,SSE,158,3.7,4.6,83,0.00,BKN,,0.70,WeatherDisplay:10.37,2013-10-07 01:04:00,
2013-10-06 21:09:00,69.8,64.1,29.72,SE,135,3.8,4.6,82,0.00,BKN,,0.70,WeatherDisplay:10.37,2013-10-07 01:09:00,
2013-10-06 21:14:00,70.2,64.1,29.72,SSE,158,3.1,3.7,81,0.00,BKN,,0.70,WeatherDisplay:10.37,2013-10-07 01:14:00,
2013-10-06 21:19:00,70.2,64.1,29.72,SSE,158,2.3,3.2,81,0.00,BKN,,0.70,WeatherDisplay:10.37,2013-10-07 01:19:00,
2013-10-06 21:24:00,70.7,63.9,29.72,SE,135,3.9,4.6,79,0.00,BKN,,0.70,WeatherDisplay:10.37,2013-10-07 01:24:00,
2013-10-06 21:29:00,70.9,64.1,29.72,SE,135,5.3,6.3,79,0.00,BKN,,0.70,WeatherDisplay:10.37,2013-10-07 01:29:00,
2013-10-06 21:34:00,70.7,63.9,29.72,SE,135,3.3,4.6,79,0.00,BKN,,0.70,WeatherDisplay:10.37,2013-10-07 01:34:00,
2013-10-06 21:39:00,70.3,63.5,29.72,SE,135,3.3,3.7,79,0.00,BKN,,0.70,WeatherDisplay:10.37,2013-10-07 01:39:00,
2013-10-06 21:44:00,70.2,63.4,29.72,ESE,112,3.0,3.7,79,0.00,BKN,,0.70,WeatherDisplay:10.37,2013-10-07 01:44:00,
2013-10-06 21:49:00,70.0,63.5,29.72,SE,135,3.4,4.7,80,0.00,BKN,,0.70,WeatherDisplay:10.37,2013-10-07 01:49:00,
2013-10-06 21:54:00,70.2,63.7,29.72,SSE,158,4.6,6.3,80,0.00,BKN,,0.70,WeatherDisplay:10.37,2013-10-07 01:54:00,
2013-10-06 21:59:00,71.1,63.5,29.72,SSE,158,5.9,6.9,77,0.00,BKN,,0.70,WeatherDisplay:10.37,2013-10-07 01:59:00,
2013-10-06 22:04:00,71.8,63.4,29.72,SSE,158,4.5,5.8,75,0.00,BKN,,0.70,WeatherDisplay:10.37,2013-10-07 02:04:00,
2013-10-06 22:09:00,71.8,63.4,29.72,SSE,158,4.1,5.3,75,0.00,BKN,,0.70,WeatherDisplay:10.37,2013-10-07 02:09:00,
2013-10-06 22:14:00,72.5,63.4,29.71,South,180,5.8,8.1,73,0.00,BKN,,0.70,WeatherDisplay:10.37,2013-10-07 02:14:00,
2013-10-06 22:19:00,73.2,63.2,29.71,ESE,112,5.5,9.2,71,0.00,BKN,,0.70,WeatherDisplay:10.37,2013-10-07 02:19:00,
2013-10-06 22:24:00,73.4,63.4,29.71,SE,135,6.6,9.2,71,0.00,BKN,,0.70,WeatherDisplay:10.37,2013-10-07 02:24:00,
2013-10-06 22:29:00,73.2,63.2,29.70,South,180,6.5,8.1,71,0.00,BKN,,0.70,WeatherDisplay:10.37,2013-10-07 02:29:00,
2013-10-06 22:34:00,73.2,63.2,29.70,ESE,112,6.3,8.1,71,0.00,BKN,,0.70,WeatherDisplay:10.37,2013-10-07 02:34:00,
2013-10-06 22:39:00,73.4,63.4,29.70,ESE,112,6.1,8.8,71,0.00,BKN,,0.70,WeatherDisplay:10.37,2013-10-07 02:39:00,
2013-10-06 22:44:00,73.6,63.6,29.70,SW,225,7.2,10.4,71,0.00,BKN,,0.70,WeatherDisplay:10.37,2013-10-07 02:44:00,
2013-10-06 22:49:00,73.9,63.9,29.70,SSW,202,10.3,11.9,71,0.00,BKN,,0.70,WeatherDisplay:10.37,2013-10-07 02:49:00,
2013-10-06 22:54:00,73.9,63.9,29.70,SSE,158,6.3,10.4,71,0.00,BKN,,0.70,WeatherDisplay:10.37,2013-10-07 02:54:00,
2013-10-06 22:59:00,73.9,63.9,29.70,SSE,158,7.3,7.3,71,0.00,BKN,,0.70,WeatherDisplay:10.37,2013-10-07 02:59:00,
2013-10-06 23:04:00,74.5,63.7,29.69,SSE,158,7.1,7.1,69,0.00,BKN,,0.70,WeatherDisplay:10.37,2013-10-07 03:04:00,
2013-10-06 23:09:00,74.5,63.7,29.69,ESE,112,7.0,10.4,69,0.00,BKN,,0.70,WeatherDisplay:10.37,2013-10-07 03:09:00,
2013-10-06 23:14:00,74.7,63.9,29.68,SSE,158,6.8,6.9,69,0.00,BKN,,0.70,WeatherDisplay:10.37,2013-10-07 03:14:00,
2013-10-06 23:19:00,74.8,63.9,29.68,ESE,112,5.5,10.4,69,0.00,BKN,,0.70,WeatherDisplay:10.37,2013-10-07 03:19:00,
2013-10-06 23:24:00,74.8,63.5,29.68,SSE,158,6.8,8.8,68,0.00,BKN,,0.70,WeatherDisplay:10.37,2013-10-07 03:24:00,
2013-10-06 23:29:00,75.7,63.5,29.68,SSE,158,6.2,9.2,66,0.00,BKN,,0.70,WeatherDisplay:10.37,2013-10-07 03:29:00,
2013-10-06 23:34:00,76.1,63.5,29.68,SSE,158,6.8,10.4,65,0.00,BKN,,0.70,WeatherDisplay:10.37,2013-10-07 03:34:00,
2013-10-06 23:39:00,76.3,63.2,29.68,WSW,248,11.3,12.7,64,0.00,BKN,,0.70,WeatherDisplay:10.37,2013-10-07 03:39:00,
2013-10-06 23:44:00,76.3,63.2,29.68,South,180,7.4,12.7,64,0.00,BKN,,0.70,WeatherDisplay:10.37,2013-10-07 03:44:00,
2013-10-06 23:49:00,76.3,63.2,29.68,South,180,9.3,12.7,64,0.00,BKN,,0.70,WeatherDisplay:10.37,2013-10-07 03:49:00,
2013-10-06 23:54:00,76.3,62.8,29.68,SSE,158,12.4,12.7,63,0.00,BKN,,0.70,WeatherDisplay:10.37,2013-10-07 03:54:00,
2013-10-06 23:59:00,75.9,62.4,29.68,SW,225,6.5,8.1,63,0.00,BKN,,0.70,WeatherDisplay:10.37,2013-10-07 03:59:00,